sensor_id;sensor_type;location;lat;lon;timestamp;P1;durP1;ratioP1;P2;durP2;ratioP2
13487;SDS011;6816;48.506;9.050;2023-09-19T00:00:57;1.13;;;0.70;;
13487;SDS011;6816;48.506;9.050;2023-09-19T00:03:58;0.53;;;0.53;;
13487;SDS011;6816;48.506;9.050;2023-09-19T00:06:59;1.03;;;0.60;;
13487;SDS011;6816;48.506;9.050;2023-09-19T00:10:02;1.53;;;0.77;;
13487;SDS011;6816;48.506;9.050;2023-09-19T00:13:04;0.70;;;0.67;;
13487;SDS011;6816;48.506;9.050;2023-09-19T00:16:09;1.00;;;0.50;;
13487;SDS011;6816;48.506;9.050;2023-09-19T00:19:14;1.67;;;0.60;;
13487;SDS011;6816;48.506;9.050;2023-09-19T00:22:16;1.23;;;0.70;;
13487;SDS011;6816;48.506;9.050;2023-09-19T00:25:19;0.77;;;0.55;;
13487;SDS011;6816;48.506;9.050;2023-09-19T00:28:20;0.73;;;0.63;;
13487;SDS011;6816;48.506;9.050;2023-09-19T00:31:21;0.80;;;0.70;;
13487;SDS011;6816;48.506;9.050;2023-09-19T00:34:25;1.15;;;0.60;;
13487;SDS011;6816;48.506;9.050;2023-09-19T00:37:26;1.53;;;0.60;;
13487;SDS011;6816;48.506;9.050;2023-09-19T00:40:26;0.60;;;0.60;;
13487;SDS011;6816;48.506;9.050;2023-09-19T00:43:27;1.70;;;0.70;;
13487;SDS011;6816;48.506;9.050;2023-09-19T00:46:27;0.85;;;0.70;;
13487;SDS011;6816;48.506;9.050;2023-09-19T00:49:28;1.47;;;0.80;;
13487;SDS011;6816;48.506;9.050;2023-09-19T00:52:30;1.47;;;0.90;;
13487;SDS011;6816;48.506;9.050;2023-09-19T00:55:32;0.98;;;0.60;;
13487;SDS011;6816;48.506;9.050;2023-09-19T00:58:33;1.57;;;0.70;;
13487;SDS011;6816;48.506;9.050;2023-09-19T01:01:35;1.00;;;0.60;;
13487;SDS011;6816;48.506;9.050;2023-09-19T01:04:39;0.73;;;0.70;;
13487;SDS011;6816;48.506;9.050;2023-09-19T01:07:40;0.80;;;0.65;;
13487;SDS011;6816;48.506;9.050;2023-09-19T01:10:46;1.13;;;0.70;;
13487;SDS011;6816;48.506;9.050;2023-09-19T01:17:20;1.92;;;0.60;;
13487;SDS011;6816;48.506;9.050;2023-09-19T01:30:43;1.33;;;0.50;;
13487;SDS011;6816;48.506;9.050;2023-09-19T01:33:56;0.70;;;0.60;;
13487;SDS011;6816;48.506;9.050;2023-09-19T01:36:57;0.60;;;0.50;;
13487;SDS011;6816;48.506;9.050;2023-09-19T01:39:59;0.60;;;0.60;;
13487;SDS011;6816;48.506;9.050;2023-09-19T01:43:20;1.37;;;0.77;;
13487;SDS011;6816;48.506;9.050;2023-09-19T01:46:33;0.90;;;0.80;;
13487;SDS011;6816;48.506;9.050;2023-09-19T01:49:50;0.63;;;0.60;;
13487;SDS011;6816;48.506;9.050;2023-09-19T01:56:50;1.20;;;0.70;;
13487;SDS011;6816;48.506;9.050;2023-09-19T02:00:07;0.90;;;0.70;;
13487;SDS011;6816;48.506;9.050;2023-09-19T02:03:12;0.90;;;0.70;;
13487;SDS011;6816;48.506;9.050;2023-09-19T02:06:17;1.53;;;0.60;;
13487;SDS011;6816;48.506;9.050;2023-09-19T02:09:18;0.67;;;0.60;;
13487;SDS011;6816;48.506;9.050;2023-09-19T02:12:19;1.67;;;0.80;;
13487;SDS011;6816;48.506;9.050;2023-09-19T02:15:20;4.90;;;0.70;;
13487;SDS011;6816;48.506;9.050;2023-09-19T02:18:21;1.23;;;0.70;;
13487;SDS011;6816;48.506;9.050;2023-09-19T02:21:22;1.07;;;0.60;;
13487;SDS011;6816;48.506;9.050;2023-09-19T02:24:22;0.60;;;0.60;;
13487;SDS011;6816;48.506;9.050;2023-09-19T02:27:26;1.30;;;0.80;;
13487;SDS011;6816;48.506;9.050;2023-09-19T02:30:27;0.73;;;0.73;;
13487;SDS011;6816;48.506;9.050;2023-09-19T02:33:28;0.70;;;0.70;;
13487;SDS011;6816;48.506;9.050;2023-09-19T02:36:32;1.97;;;0.80;;
13487;SDS011;6816;48.506;9.050;2023-09-19T02:39:33;1.07;;;0.80;;
13487;SDS011;6816;48.506;9.050;2023-09-19T02:42:34;1.20;;;0.73;;
13487;SDS011;6816;48.506;9.050;2023-09-19T02:45:34;1.25;;;0.70;;
13487;SDS011;6816;48.506;9.050;2023-09-19T02:48:35;1.53;;;0.80;;
13487;SDS011;6816;48.506;9.050;2023-09-19T02:51:36;1.53;;;0.80;;
13487;SDS011;6816;48.506;9.050;2023-09-19T02:54:37;1.07;;;0.90;;
13487;SDS011;6816;48.506;9.050;2023-09-19T02:57:37;0.97;;;0.80;;
13487;SDS011;6816;48.506;9.050;2023-09-19T03:00:41;1.43;;;0.80;;
13487;SDS011;6816;48.506;9.050;2023-09-19T03:03:42;1.20;;;0.80;;
13487;SDS011;6816;48.506;9.050;2023-09-19T03:06:42;0.70;;;0.70;;
13487;SDS011;6816;48.506;9.050;2023-09-19T03:09:44;1.30;;;0.90;;
13487;SDS011;6816;48.506;9.050;2023-09-19T03:12:45;1.85;;;1.00;;
13487;SDS011;6816;48.506;9.050;2023-09-19T03:15:47;3.43;;;0.93;;
13487;SDS011;6816;48.506;9.050;2023-09-19T03:18:50;2.13;;;0.83;;
13487;SDS011;6816;48.506;9.050;2023-09-19T03:21:51;0.70;;;0.70;;
13487;SDS011;6816;48.506;9.050;2023-09-19T03:24:53;1.77;;;0.80;;
13487;SDS011;6816;48.506;9.050;2023-09-19T03:27:55;1.53;;;0.70;;
13487;SDS011;6816;48.506;9.050;2023-09-19T03:31:01;1.10;;;0.87;;
13487;SDS011;6816;48.506;9.050;2023-09-19T03:34:05;1.17;;;1.07;;
13487;SDS011;6816;48.506;9.050;2023-09-19T03:37:06;2.00;;;0.80;;
13487;SDS011;6816;48.506;9.050;2023-09-19T03:40:07;1.00;;;0.90;;
13487;SDS011;6816;48.506;9.050;2023-09-19T03:43:10;1.20;;;0.90;;
13487;SDS011;6816;48.506;9.050;2023-09-19T03:46:10;1.23;;;0.90;;
13487;SDS011;6816;48.506;9.050;2023-09-19T03:49:12;1.08;;;0.90;;
13487;SDS011;6816;48.506;9.050;2023-09-19T03:52:13;1.95;;;1.00;;
13487;SDS011;6816;48.506;9.050;2023-09-19T03:55:15;1.10;;;0.90;;
13487;SDS011;6816;48.506;9.050;2023-09-19T03:58:16;1.33;;;0.90;;
13487;SDS011;6816;48.506;9.050;2023-09-19T04:01:16;1.87;;;1.20;;
13487;SDS011;6816;48.506;9.050;2023-09-19T04:04:18;0.87;;;0.87;;
13487;SDS011;6816;48.506;9.050;2023-09-19T04:07:19;1.43;;;0.90;;
13487;SDS011;6816;48.506;9.050;2023-09-19T04:10:22;1.00;;;0.90;;
13487;SDS011;6816;48.506;9.050;2023-09-19T04:13:23;0.93;;;0.90;;
13487;SDS011;6816;48.506;9.050;2023-09-19T04:16:23;1.90;;;1.00;;
13487;SDS011;6816;48.506;9.050;2023-09-19T04:19:24;2.07;;;1.20;;
13487;SDS011;6816;48.506;9.050;2023-09-19T04:22:25;1.30;;;1.10;;
13487;SDS011;6816;48.506;9.050;2023-09-19T04:25:25;1.20;;;1.10;;
13487;SDS011;6816;48.506;9.050;2023-09-19T04:28:27;1.83;;;1.00;;
13487;SDS011;6816;48.506;9.050;2023-09-19T04:31:28;3.73;;;1.87;;
13487;SDS011;6816;48.506;9.050;2023-09-19T04:34:29;1.87;;;1.20;;
13487;SDS011;6816;48.506;9.050;2023-09-19T04:37:30;2.30;;;1.20;;
13487;SDS011;6816;48.506;9.050;2023-09-19T04:40:31;1.43;;;1.33;;
13487;SDS011;6816;48.506;9.050;2023-09-19T04:43:33;5.10;;;1.37;;
13487;SDS011;6816;48.506;9.050;2023-09-19T04:46:34;1.87;;;1.10;;
13487;SDS011;6816;48.506;9.050;2023-09-19T04:49:35;1.50;;;1.20;;
13487;SDS011;6816;48.506;9.050;2023-09-19T04:52:35;2.00;;;1.00;;
13487;SDS011;6816;48.506;9.050;2023-09-19T04:55:37;1.30;;;0.90;;
13487;SDS011;6816;48.506;9.050;2023-09-19T04:58:37;1.40;;;1.10;;
13487;SDS011;6816;48.506;9.050;2023-09-19T05:01:38;1.03;;;0.93;;
13487;SDS011;6816;48.506;9.050;2023-09-19T05:04:38;0.77;;;0.77;;
13487;SDS011;6816;48.506;9.050;2023-09-19T05:07:39;1.93;;;0.80;;
13487;SDS011;6816;48.506;9.050;2023-09-19T05:10:40;1.30;;;0.80;;
13487;SDS011;6816;48.506;9.050;2023-09-19T05:13:41;4.10;;;0.80;;
13487;SDS011;6816;48.506;9.050;2023-09-19T05:16:43;1.00;;;0.90;;
13487;SDS011;6816;48.506;9.050;2023-09-19T05:19:43;1.70;;;0.87;;
13487;SDS011;6816;48.506;9.050;2023-09-19T05:22:46;1.67;;;0.90;;
13487;SDS011;6816;48.506;9.050;2023-09-19T05:25:46;2.47;;;1.03;;
13487;SDS011;6816;48.506;9.050;2023-09-19T05:28:47;1.30;;;0.83;;
13487;SDS011;6816;48.506;9.050;2023-09-19T05:31:50;1.10;;;0.70;;
13487;SDS011;6816;48.506;9.050;2023-09-19T05:34:51;3.87;;;1.00;;
13487;SDS011;6816;48.506;9.050;2023-09-19T05:37:56;2.83;;;0.87;;
13487;SDS011;6816;48.506;9.050;2023-09-19T05:40:58;1.23;;;0.80;;
13487;SDS011;6816;48.506;9.050;2023-09-19T05:43:58;1.60;;;0.93;;
13487;SDS011;6816;48.506;9.050;2023-09-19T05:46:59;1.80;;;1.13;;
13487;SDS011;6816;48.506;9.050;2023-09-19T05:50:03;2.17;;;1.10;;
13487;SDS011;6816;48.506;9.050;2023-09-19T05:53:05;0.88;;;0.70;;
13487;SDS011;6816;48.506;9.050;2023-09-19T05:56:07;1.13;;;0.80;;
13487;SDS011;6816;48.506;9.050;2023-09-19T05:59:09;1.70;;;0.90;;
13487;SDS011;6816;48.506;9.050;2023-09-19T06:02:13;1.73;;;1.20;;
13487;SDS011;6816;48.506;9.050;2023-09-19T06:05:15;2.13;;;1.07;;
13487;SDS011;6816;48.506;9.050;2023-09-19T06:08:16;1.08;;;0.90;;
13487;SDS011;6816;48.506;9.050;2023-09-19T06:11:17;2.33;;;0.80;;
13487;SDS011;6816;48.506;9.050;2023-09-19T06:14:20;1.65;;;0.93;;
13487;SDS011;6816;48.506;9.050;2023-09-19T06:17:24;2.97;;;0.70;;
13487;SDS011;6816;48.506;9.050;2023-09-19T06:20:27;1.40;;;0.90;;
13487;SDS011;6816;48.506;9.050;2023-09-19T06:23:28;1.17;;;0.67;;
13487;SDS011;6816;48.506;9.050;2023-09-19T06:26:29;0.40;;;0.40;;
13487;SDS011;6816;48.506;9.050;2023-09-19T06:29:32;1.40;;;0.85;;
13487;SDS011;6816;48.506;9.050;2023-09-19T06:33:20;0.80;;;0.70;;
13487;SDS011;6816;48.506;9.050;2023-09-19T06:36:39;1.40;;;0.70;;
13487;SDS011;6816;48.506;9.050;2023-09-19T06:39:42;0.90;;;0.73;;
13487;SDS011;6816;48.506;9.050;2023-09-19T06:42:45;1.30;;;0.90;;
13487;SDS011;6816;48.506;9.050;2023-09-19T06:45:50;0.70;;;0.68;;
13487;SDS011;6816;48.506;9.050;2023-09-19T06:48:57;2.00;;;1.00;;
13487;SDS011;6816;48.506;9.050;2023-09-19T06:52:01;0.88;;;0.80;;
13487;SDS011;6816;48.506;9.050;2023-09-19T06:55:04;1.10;;;0.70;;
13487;SDS011;6816;48.506;9.050;2023-09-19T06:58:31;1.45;;;0.77;;
13487;SDS011;6816;48.506;9.050;2023-09-19T07:02:24;1.58;;;0.93;;
13487;SDS011;6816;48.506;9.050;2023-09-19T07:05:37;1.92;;;1.17;;
13487;SDS011;6816;48.506;9.050;2023-09-19T07:08:39;2.42;;;1.70;;
13487;SDS011;6816;48.506;9.050;2023-09-19T07:11:40;1.75;;;1.20;;
13487;SDS011;6816;48.506;9.050;2023-09-19T07:14:42;1.00;;;0.90;;
13487;SDS011;6816;48.506;9.050;2023-09-19T07:17:43;3.40;;;1.02;;
13487;SDS011;6816;48.506;9.050;2023-09-19T07:20:45;1.88;;;1.25;;
13487;SDS011;6816;48.506;9.050;2023-09-19T07:23:49;1.23;;;0.77;;
13487;SDS011;6816;48.506;9.050;2023-09-19T07:26:52;0.90;;;0.73;;
13487;SDS011;6816;48.506;9.050;2023-09-19T07:29:53;1.23;;;0.93;;
13487;SDS011;6816;48.506;9.050;2023-09-19T07:32:53;1.52;;;0.88;;
13487;SDS011;6816;48.506;9.050;2023-09-19T07:35:54;0.98;;;0.75;;
13487;SDS011;6816;48.506;9.050;2023-09-19T07:38:55;2.38;;;0.85;;
13487;SDS011;6816;48.506;9.050;2023-09-19T07:41:58;1.27;;;0.82;;
13487;SDS011;6816;48.506;9.050;2023-09-19T07:45:00;1.40;;;0.70;;
13487;SDS011;6816;48.506;9.050;2023-09-19T07:48:01;1.08;;;0.80;;
13487;SDS011;6816;48.506;9.050;2023-09-19T07:51:06;1.63;;;0.70;;
13487;SDS011;6816;48.506;9.050;2023-09-19T07:54:08;0.93;;;0.77;;
13487;SDS011;6816;48.506;9.050;2023-09-19T07:57:10;2.47;;;1.48;;
13487;SDS011;6816;48.506;9.050;2023-09-19T08:00:12;1.60;;;0.80;;
13487;SDS011;6816;48.506;9.050;2023-09-19T08:03:13;1.35;;;0.95;;
13487;SDS011;6816;48.506;9.050;2023-09-19T08:06:14;0.85;;;0.75;;
13487;SDS011;6816;48.506;9.050;2023-09-19T08:09:16;0.95;;;0.70;;
13487;SDS011;6816;48.506;9.050;2023-09-19T08:12:20;2.75;;;1.00;;
13487;SDS011;6816;48.506;9.050;2023-09-19T08:15:24;2.05;;;0.85;;
13487;SDS011;6816;48.506;9.050;2023-09-19T08:18:25;1.33;;;0.90;;
13487;SDS011;6816;48.506;9.050;2023-09-19T08:21:26;2.00;;;1.00;;
13487;SDS011;6816;48.506;9.050;2023-09-19T08:24:30;0.82;;;0.82;;
13487;SDS011;6816;48.506;9.050;2023-09-19T08:27:30;0.85;;;0.85;;
13487;SDS011;6816;48.506;9.050;2023-09-19T08:30:31;1.33;;;0.80;;
13487;SDS011;6816;48.506;9.050;2023-09-19T08:33:35;1.25;;;0.90;;
13487;SDS011;6816;48.506;9.050;2023-09-19T08:36:36;1.70;;;0.82;;
13487;SDS011;6816;48.506;9.050;2023-09-19T08:39:38;1.02;;;0.98;;
13487;SDS011;6816;48.506;9.050;2023-09-19T08:42:49;0.77;;;0.70;;
13487;SDS011;6816;48.506;9.050;2023-09-19T08:45:50;1.20;;;1.10;;
13487;SDS011;6816;48.506;9.050;2023-09-19T08:48:58;1.88;;;1.08;;
13487;SDS011;6816;48.506;9.050;2023-09-19T08:52:10;0.80;;;0.80;;
13487;SDS011;6816;48.506;9.050;2023-09-19T08:55:28;1.10;;;1.00;;
13487;SDS011;6816;48.506;9.050;2023-09-19T08:58:31;2.03;;;1.00;;
13487;SDS011;6816;48.506;9.050;2023-09-19T09:01:43;0.95;;;0.73;;
13487;SDS011;6816;48.506;9.050;2023-09-19T09:04:45;0.70;;;0.70;;
13487;SDS011;6816;48.506;9.050;2023-09-19T09:07:47;1.48;;;1.15;;
13487;SDS011;6816;48.506;9.050;2023-09-19T09:10:49;1.20;;;0.90;;
13487;SDS011;6816;48.506;9.050;2023-09-19T09:13:51;0.85;;;0.70;;
13487;SDS011;6816;48.506;9.050;2023-09-19T09:16:51;1.40;;;0.85;;
13487;SDS011;6816;48.506;9.050;2023-09-19T09:19:56;1.08;;;0.95;;
13487;SDS011;6816;48.506;9.050;2023-09-19T09:22:57;1.45;;;1.20;;
13487;SDS011;6816;48.506;9.050;2023-09-19T09:26:03;1.80;;;1.00;;
13487;SDS011;6816;48.506;9.050;2023-09-19T09:29:06;1.85;;;1.23;;
13487;SDS011;6816;48.506;9.050;2023-09-19T09:32:16;1.15;;;0.82;;
13487;SDS011;6816;48.506;9.050;2023-09-19T09:35:28;1.63;;;1.05;;
13487;SDS011;6816;48.506;9.050;2023-09-19T09:38:29;1.27;;;0.95;;
13487;SDS011;6816;48.506;9.050;2023-09-19T09:41:43;0.90;;;0.80;;
13487;SDS011;6816;48.506;9.050;2023-09-19T09:44:44;1.80;;;1.00;;
13487;SDS011;6816;48.506;9.050;2023-09-19T09:47:48;2.10;;;0.80;;
13487;SDS011;6816;48.506;9.050;2023-09-19T09:50:58;1.15;;;0.93;;
13487;SDS011;6816;48.506;9.050;2023-09-19T09:54:10;1.98;;;1.13;;
13487;SDS011;6816;48.506;9.050;2023-09-19T09:57:18;2.70;;;1.20;;
13487;SDS011;6816;48.506;9.050;2023-09-19T10:00:23;1.23;;;0.90;;
13487;SDS011;6816;48.506;9.050;2023-09-19T10:03:34;2.20;;;1.02;;
13487;SDS011;6816;48.506;9.050;2023-09-19T10:06:40;1.20;;;1.10;;
13487;SDS011;6816;48.506;9.050;2023-09-19T10:09:47;1.45;;;0.80;;
13487;SDS011;6816;48.506;9.050;2023-09-19T10:12:48;1.02;;;0.90;;
13487;SDS011;6816;48.506;9.050;2023-09-19T10:15:55;1.20;;;1.10;;
13487;SDS011;6816;48.506;9.050;2023-09-19T10:18:58;1.38;;;1.25;;
13487;SDS011;6816;48.506;9.050;2023-09-19T10:22:07;2.03;;;1.05;;
13487;SDS011;6816;48.506;9.050;2023-09-19T10:25:10;0.93;;;0.90;;
13487;SDS011;6816;48.506;9.050;2023-09-19T10:28:13;1.63;;;1.17;;
13487;SDS011;6816;48.506;9.050;2023-09-19T10:31:17;3.22;;;0.93;;
13487;SDS011;6816;48.506;9.050;2023-09-19T10:34:21;4.10;;;1.30;;
13487;SDS011;6816;48.506;9.050;2023-09-19T10:37:23;1.42;;;1.00;;
13487;SDS011;6816;48.506;9.050;2023-09-19T10:40:27;1.48;;;0.95;;
13487;SDS011;6816;48.506;9.050;2023-09-19T10:43:31;1.10;;;1.00;;
13487;SDS011;6816;48.506;9.050;2023-09-19T10:46:32;1.73;;;1.02;;
13487;SDS011;6816;48.506;9.050;2023-09-19T10:49:33;1.02;;;0.98;;
13487;SDS011;6816;48.506;9.050;2023-09-19T10:52:34;1.13;;;1.02;;
13487;SDS011;6816;48.506;9.050;2023-09-19T10:55:42;2.20;;;0.90;;
13487;SDS011;6816;48.506;9.050;2023-09-19T10:59:07;1.00;;;1.00;;
13487;SDS011;6816;48.506;9.050;2023-09-19T11:02:16;1.35;;;1.25;;
13487;SDS011;6816;48.506;9.050;2023-09-19T11:05:17;2.25;;;1.10;;
13487;SDS011;6816;48.506;9.050;2023-09-19T11:08:19;1.30;;;0.90;;
13487;SDS011;6816;48.506;9.050;2023-09-19T11:11:39;1.08;;;0.98;;
13487;SDS011;6816;48.506;9.050;2023-09-19T11:14:40;1.00;;;1.00;;
13487;SDS011;6816;48.506;9.050;2023-09-19T11:17:42;1.48;;;0.98;;
13487;SDS011;6816;48.506;9.050;2023-09-19T11:20:46;1.25;;;0.90;;
13487;SDS011;6816;48.506;9.050;2023-09-19T11:27:11;0.98;;;0.90;;
13487;SDS011;6816;48.506;9.050;2023-09-19T11:30:26;1.25;;;0.60;;
13487;SDS011;6816;48.506;9.050;2023-09-19T11:33:28;1.25;;;1.00;;
13487;SDS011;6816;48.506;9.050;2023-09-19T11:36:38;2.58;;;0.95;;
13487;SDS011;6816;48.506;9.050;2023-09-19T11:40:25;1.10;;;1.00;;
13487;SDS011;6816;48.506;9.050;2023-09-19T11:43:28;2.05;;;1.00;;
13487;SDS011;6816;48.506;9.050;2023-09-19T11:46:31;1.70;;;1.13;;
13487;SDS011;6816;48.506;9.050;2023-09-19T11:49:33;0.90;;;0.90;;
13487;SDS011;6816;48.506;9.050;2023-09-19T11:52:34;1.35;;;1.00;;
13487;SDS011;6816;48.506;9.050;2023-09-19T11:55:40;2.70;;;1.10;;
13487;SDS011;6816;48.506;9.050;2023-09-19T11:58:44;1.17;;;0.88;;
13487;SDS011;6816;48.506;9.050;2023-09-19T12:01:50;2.00;;;1.00;;
13487;SDS011;6816;48.506;9.050;2023-09-19T12:04:57;0.98;;;0.90;;
13487;SDS011;6816;48.506;9.050;2023-09-19T12:07:59;1.55;;;0.93;;
13487;SDS011;6816;48.506;9.050;2023-09-19T12:11:01;1.52;;;0.80;;
13487;SDS011;6816;48.506;9.050;2023-09-19T12:14:01;1.40;;;0.90;;
13487;SDS011;6816;48.506;9.050;2023-09-19T12:17:03;2.13;;;0.90;;
13487;SDS011;6816;48.506;9.050;2023-09-19T12:20:05;1.30;;;0.77;;
13487;SDS011;6816;48.506;9.050;2023-09-19T12:23:16;1.20;;;0.70;;
13487;SDS011;6816;48.506;9.050;2023-09-19T12:26:17;1.05;;;0.95;;
13487;SDS011;6816;48.506;9.050;2023-09-19T12:29:19;1.88;;;0.82;;
13487;SDS011;6816;48.506;9.050;2023-09-19T12:32:36;0.95;;;0.85;;
13487;SDS011;6816;48.506;9.050;2023-09-19T12:35:40;1.00;;;0.90;;
13487;SDS011;6816;48.506;9.050;2023-09-19T12:38:41;0.77;;;0.77;;
13487;SDS011;6816;48.506;9.050;2023-09-19T12:41:48;1.15;;;0.90;;
13487;SDS011;6816;48.506;9.050;2023-09-19T12:44:51;1.00;;;0.90;;
13487;SDS011;6816;48.506;9.050;2023-09-19T12:51:35;0.98;;;0.90;;
13487;SDS011;6816;48.506;9.050;2023-09-19T12:54:39;0.90;;;0.90;;
13487;SDS011;6816;48.506;9.050;2023-09-19T12:57:40;1.02;;;0.90;;
13487;SDS011;6816;48.506;9.050;2023-09-19T13:00:42;1.30;;;0.95;;
13487;SDS011;6816;48.506;9.050;2023-09-19T13:03:44;1.13;;;0.90;;
13487;SDS011;6816;48.506;9.050;2023-09-19T13:06:46;1.35;;;1.00;;
13487;SDS011;6816;48.506;9.050;2023-09-19T13:10:04;1.60;;;1.20;;
13487;SDS011;6816;48.506;9.050;2023-09-19T13:13:22;3.22;;;0.80;;
13487;SDS011;6816;48.506;9.050;2023-09-19T13:16:27;1.42;;;1.27;;
13487;SDS011;6816;48.506;9.050;2023-09-19T13:22:43;1.20;;;1.00;;
13487;SDS011;6816;48.506;9.050;2023-09-19T13:25:49;1.13;;;1.02;;
13487;SDS011;6816;48.506;9.050;2023-09-19T13:28:49;1.10;;;1.00;;
13487;SDS011;6816;48.506;9.050;2023-09-19T13:31:50;1.17;;;0.88;;
13487;SDS011;6816;48.506;9.050;2023-09-19T13:34:53;1.77;;;1.00;;
13487;SDS011;6816;48.506;9.050;2023-09-19T13:37:53;1.10;;;1.00;;
13487;SDS011;6816;48.506;9.050;2023-09-19T13:40:54;1.00;;;0.80;;
13487;SDS011;6816;48.506;9.050;2023-09-19T13:43:55;1.73;;;1.10;;
13487;SDS011;6816;48.506;9.050;2023-09-19T13:46:57;1.55;;;1.05;;
13487;SDS011;6816;48.506;9.050;2023-09-19T13:49:57;1.42;;;0.90;;
13487;SDS011;6816;48.506;9.050;2023-09-19T13:52:58;0.90;;;0.90;;
13487;SDS011;6816;48.506;9.050;2023-09-19T13:56:00;1.08;;;0.93;;
13487;SDS011;6816;48.506;9.050;2023-09-19T13:59:01;1.67;;;0.85;;
13487;SDS011;6816;48.506;9.050;2023-09-19T14:02:01;1.55;;;0.93;;
13487;SDS011;6816;48.506;9.050;2023-09-19T14:05:05;1.25;;;0.93;;
13487;SDS011;6816;48.506;9.050;2023-09-19T14:08:06;1.10;;;0.98;;
13487;SDS011;6816;48.506;9.050;2023-09-19T14:11:07;1.40;;;0.88;;
13487;SDS011;6816;48.506;9.050;2023-09-19T14:14:08;0.80;;;0.80;;
13487;SDS011;6816;48.506;9.050;2023-09-19T14:17:09;2.15;;;1.10;;
13487;SDS011;6816;48.506;9.050;2023-09-19T14:20:10;1.13;;;0.85;;
13487;SDS011;6816;48.506;9.050;2023-09-19T14:23:11;1.05;;;0.90;;
13487;SDS011;6816;48.506;9.050;2023-09-19T14:26:12;0.88;;;0.88;;
13487;SDS011;6816;48.506;9.050;2023-09-19T14:29:12;1.40;;;0.90;;
13487;SDS011;6816;48.506;9.050;2023-09-19T14:32:14;0.95;;;0.82;;
13487;SDS011;6816;48.506;9.050;2023-09-19T14:35:15;1.30;;;0.90;;
13487;SDS011;6816;48.506;9.050;2023-09-19T14:38:16;0.80;;;0.80;;
13487;SDS011;6816;48.506;9.050;2023-09-19T14:41:17;2.28;;;0.70;;
13487;SDS011;6816;48.506;9.050;2023-09-19T14:44:17;0.82;;;0.80;;
13487;SDS011;6816;48.506;9.050;2023-09-19T14:47:18;1.50;;;1.00;;
13487;SDS011;6816;48.506;9.050;2023-09-19T14:50:18;1.05;;;0.90;;
13487;SDS011;6816;48.506;9.050;2023-09-19T14:53:19;1.73;;;0.80;;
13487;SDS011;6816;48.506;9.050;2023-09-19T14:56:20;5.35;;;1.10;;
13487;SDS011;6816;48.506;9.050;2023-09-19T14:59:22;1.35;;;1.00;;
13487;SDS011;6816;48.506;9.050;2023-09-19T15:02:22;1.20;;;1.10;;
13487;SDS011;6816;48.506;9.050;2023-09-19T15:05:23;1.02;;;0.93;;
13487;SDS011;6816;48.506;9.050;2023-09-19T15:08:24;1.08;;;0.80;;
13487;SDS011;6816;48.506;9.050;2023-09-19T15:11:25;1.10;;;0.90;;
13487;SDS011;6816;48.506;9.050;2023-09-19T15:14:25;0.65;;;0.65;;
13487;SDS011;6816;48.506;9.050;2023-09-19T15:17:26;1.00;;;0.90;;
13487;SDS011;6816;48.506;9.050;2023-09-19T15:20:27;1.35;;;1.10;;
13487;SDS011;6816;48.506;9.050;2023-09-19T15:23:27;1.40;;;1.00;;
13487;SDS011;6816;48.506;9.050;2023-09-19T15:26:29;1.05;;;0.90;;
13487;SDS011;6816;48.506;9.050;2023-09-19T15:29:30;1.15;;;0.95;;
13487;SDS011;6816;48.506;9.050;2023-09-19T15:32:30;2.47;;;0.90;;
13487;SDS011;6816;48.506;9.050;2023-09-19T15:35:32;1.25;;;1.10;;
13487;SDS011;6816;48.506;9.050;2023-09-19T15:38:55;1.27;;;1.17;;
13487;SDS011;6816;48.506;9.050;2023-09-19T15:41:57;1.17;;;0.98;;
13487;SDS011;6816;48.506;9.050;2023-09-19T15:44:57;1.00;;;0.90;;
13487;SDS011;6816;48.506;9.050;2023-09-19T15:47:58;1.52;;;1.25;;
13487;SDS011;6816;48.506;9.050;2023-09-19T15:51:02;1.20;;;1.10;;
13487;SDS011;6816;48.506;9.050;2023-09-19T15:54:08;1.20;;;1.10;;
13487;SDS011;6816;48.506;9.050;2023-09-19T15:57:15;1.08;;;0.98;;
13487;SDS011;6816;48.506;9.050;2023-09-19T16:00:15;1.40;;;1.17;;
13487;SDS011;6816;48.506;9.050;2023-09-19T16:03:17;1.38;;;1.13;;
13487;SDS011;6816;48.506;9.050;2023-09-19T16:06:19;2.00;;;1.30;;
13487;SDS011;6816;48.506;9.050;2023-09-19T16:09:23;3.05;;;1.02;;
13487;SDS011;6816;48.506;9.050;2023-09-19T16:12:24;1.20;;;1.10;;
13487;SDS011;6816;48.506;9.050;2023-09-19T16:15:24;1.25;;;1.10;;
13487;SDS011;6816;48.506;9.050;2023-09-19T16:18:25;1.15;;;1.02;;
13487;SDS011;6816;48.506;9.050;2023-09-19T16:21:26;0.90;;;0.82;;
13487;SDS011;6816;48.506;9.050;2023-09-19T16:24:27;1.25;;;1.00;;
13487;SDS011;6816;48.506;9.050;2023-09-19T16:27:28;0.82;;;0.82;;
13487;SDS011;6816;48.506;9.050;2023-09-19T16:30:31;1.42;;;1.30;;
13487;SDS011;6816;48.506;9.050;2023-09-19T16:33:34;1.67;;;1.20;;
13487;SDS011;6816;48.506;9.050;2023-09-19T16:36:42;1.38;;;1.27;;
13487;SDS011;6816;48.506;9.050;2023-09-19T16:39:42;1.10;;;1.00;;
13487;SDS011;6816;48.506;9.050;2023-09-19T16:42:44;2.10;;;1.10;;
13487;SDS011;6816;48.506;9.050;2023-09-19T16:45:58;1.15;;;1.08;;
13487;SDS011;6816;48.506;9.050;2023-09-19T16:49:01;1.73;;;1.20;;
13487;SDS011;6816;48.506;9.050;2023-09-19T16:52:03;1.27;;;1.17;;
13487;SDS011;6816;48.506;9.050;2023-09-19T16:55:04;2.75;;;1.20;;
13487;SDS011;6816;48.506;9.050;2023-09-19T16:58:06;1.55;;;1.15;;
13487;SDS011;6816;48.506;9.050;2023-09-19T17:01:07;1.30;;;1.20;;
13487;SDS011;6816;48.506;9.050;2023-09-19T17:04:11;1.60;;;1.33;;
13487;SDS011;6816;48.506;9.050;2023-09-19T17:07:11;1.40;;;1.30;;
13487;SDS011;6816;48.506;9.050;2023-09-19T17:10:12;2.00;;;1.50;;
13487;SDS011;6816;48.506;9.050;2023-09-19T17:13:12;1.27;;;1.17;;
13487;SDS011;6816;48.506;9.050;2023-09-19T17:16:14;1.25;;;1.15;;
13487;SDS011;6816;48.506;9.050;2023-09-19T17:19:19;1.25;;;1.15;;
13487;SDS011;6816;48.506;9.050;2023-09-19T17:22:22;1.42;;;1.33;;
13487;SDS011;6816;48.506;9.050;2023-09-19T17:25:23;1.92;;;1.15;;
13487;SDS011;6816;48.506;9.050;2023-09-19T17:28:24;6.72;;;1.38;;
13487;SDS011;6816;48.506;9.050;2023-09-19T17:31:25;1.40;;;1.15;;
13487;SDS011;6816;48.506;9.050;2023-09-19T17:34:26;2.13;;;1.30;;
13487;SDS011;6816;48.506;9.050;2023-09-19T17:37:27;1.40;;;1.20;;
13487;SDS011;6816;48.506;9.050;2023-09-19T17:40:28;1.52;;;1.25;;
13487;SDS011;6816;48.506;9.050;2023-09-19T17:43:28;1.63;;;1.52;;
13487;SDS011;6816;48.506;9.050;2023-09-19T17:46:31;1.50;;;1.40;;
13487;SDS011;6816;48.506;9.050;2023-09-19T17:49:34;3.88;;;1.80;;
13487;SDS011;6816;48.506;9.050;2023-09-19T17:52:34;1.75;;;1.27;;
13487;SDS011;6816;48.506;9.050;2023-09-19T17:55:38;1.95;;;1.52;;
13487;SDS011;6816;48.506;9.050;2023-09-19T17:58:39;1.63;;;1.40;;
13487;SDS011;6816;48.506;9.050;2023-09-19T18:01:42;1.73;;;1.23;;
13487;SDS011;6816;48.506;9.050;2023-09-19T18:04:45;1.73;;;1.63;;
13487;SDS011;6816;48.506;9.050;2023-09-19T18:07:46;1.70;;;1.60;;
13487;SDS011;6816;48.506;9.050;2023-09-19T18:10:48;1.90;;;1.42;;
13487;SDS011;6816;48.506;9.050;2023-09-19T18:13:49;2.17;;;1.20;;
13487;SDS011;6816;48.506;9.050;2023-09-19T18:16:51;1.75;;;0.95;;
13487;SDS011;6816;48.506;9.050;2023-09-19T18:19:56;1.65;;;1.20;;
13487;SDS011;6816;48.506;9.050;2023-09-19T18:22:56;2.70;;;1.27;;
13487;SDS011;6816;48.506;9.050;2023-09-19T18:25:57;1.42;;;1.33;;
13487;SDS011;6816;48.506;9.050;2023-09-19T18:28:58;1.15;;;1.05;;
13487;SDS011;6816;48.506;9.050;2023-09-19T18:32:00;1.50;;;1.08;;
13487;SDS011;6816;48.506;9.050;2023-09-19T18:35:00;1.48;;;1.38;;
13487;SDS011;6816;48.506;9.050;2023-09-19T18:38:03;1.20;;;1.10;;
13487;SDS011;6816;48.506;9.050;2023-09-19T18:41:07;1.38;;;1.27;;
13487;SDS011;6816;48.506;9.050;2023-09-19T18:44:08;1.40;;;1.20;;
13487;SDS011;6816;48.506;9.050;2023-09-19T18:47:10;1.75;;;1.50;;
13487;SDS011;6816;48.506;9.050;2023-09-19T18:50:12;1.35;;;1.13;;
13487;SDS011;6816;48.506;9.050;2023-09-19T18:53:13;2.55;;;1.30;;
13487;SDS011;6816;48.506;9.050;2023-09-19T18:56:14;3.08;;;1.30;;
13487;SDS011;6816;48.506;9.050;2023-09-19T18:59:14;1.25;;;1.15;;
13487;SDS011;6816;48.506;9.050;2023-09-19T19:02:15;1.38;;;1.27;;
13487;SDS011;6816;48.506;9.050;2023-09-19T19:05:16;2.17;;;1.20;;
13487;SDS011;6816;48.506;9.050;2023-09-19T19:08:17;2.60;;;1.30;;